Time;durP1;ratioP1;P1;durP2;ratioP2;P2;SDS_P1;SDS_P2;PMS_P1;PMS_P2;Temp;Humidity;BMP_temperature;BMP_pressure;BME280_temperature;BME280_humidity;BME280_pressure;Samples;Min_cycle;Max_cycle;Signal;HPM_P1;HPM_P2
2023/04/20 00:02:53;;;;;;;7.22;4.43;;;;;;;9.14;58.61;100995.63;8287879;28;20112;-59
2023/04/20 00:06:55;;;;;;;9.27;4.32;;;;;;;9.12;58.47;100985.94;8288681;28;20504;-62
2023/04/20 00:10:56;;;;;;;11.82;4.88;;;;;;;9.08;58.42;100984.44;8287766;28;20042;-62
2023/04/20 00:14:56;;;;;;;9.95;4.68;;;;;;;9.06;58.07;100978.34;8286416;28;20121;-62
2023/04/20 00:18:58;;;;;;;5.68;3.88;;;;;;;9.06;57.51;100968.38;8288283;28;20065;-62
2023/04/20 00:22:59;;;;;;;14.68;4.30;;;;;;;9.10;56.97;100951.00;8287618;28;20050;-62
2023/04/20 00:27:00;;;;;;;7.38;4.25;;;;;;;9.03;57.25;100944.34;8279003;28;20133;-62
2023/04/20 00:31:00;;;;;;;8.90;4.35;;;;;;;8.98;57.22;100940.31;8272051;28;20095;-62
2023/04/20 00:35:01;;;;;;;7.28;3.80;;;;;;;8.90;57.64;100942.72;8281493;28;20046;-62
2023/04/20 00:39:02;;;;;;;9.02;4.45;;;;;;;8.87;57.83;100926.78;8257030;28;20531;-62
2023/04/20 00:43:18;;;;;;;9.80;4.63;;;;;;;8.87;58.60;100926.78;8263220;28;20034;-62
2023/04/20 00:47:18;;;;;;;6.85;3.95;;;;;;;8.83;57.93;100919.94;8291759;28;20044;-66
2023/04/20 00:51:21;;;;;;;7.07;4.00;;;;;;;8.69;59.42;100917.47;8289821;28;20041;-66
2023/04/20 00:55:21;;;;;;;7.72;4.57;;;;;;;8.49;60.01;100910.06;8291886;28;20046;-66
2023/04/20 00:59:22;;;;;;;7.47;4.97;;;;;;;8.60;62.05;100904.72;8281946;28;20038;-67
2023/04/20 01:03:23;;;;;;;9.93;4.70;;;;;;;8.53;62.87;100908.81;8292203;28;20062;-66
2023/04/20 01:07:23;;;;;;;10.25;4.78;;;;;;;8.35;64.35;100899.50;8282184;28;20042;-67
2023/04/20 01:11:23;;;;;;;11.85;4.90;;;;;;;8.36;64.81;100896.69;8255686;28;20090;-66
2023/04/20 01:15:24;;;;;;;8.63;4.40;;;;;;;8.52;63.85;100893.66;8275192;28;20081;-66
2023/04/20 01:19:25;;;;;;;7.38;4.45;;;;;;;8.66;61.76;100890.75;8288165;28;20033;-66
2023/04/20 01:23:25;;;;;;;9.00;4.32;;;;;;;8.79;61.20;100880.72;8264244;28;20124;-66
2023/04/20 01:27:26;;;;;;;6.95;4.22;;;;;;;8.82;59.90;100880.50;8255940;28;20042;-67
2023/04/20 01:31:26;;;;;;;5.47;4.05;;;;;;;8.81;60.23;100874.22;8256270;28;20378;-66
2023/04/20 01:35:27;;;;;;;8.43;4.05;;;;;;;8.89;59.91;100870.94;8256832;28;20097;-66
2023/04/20 01:39:29;;;;;;;11.57;4.13;;;;;;;8.98;59.54;100873.75;8256189;28;20041;-66
2023/04/20 01:43:33;;;;;;;8.85;4.22;;;;;;;9.07;58.82;100869.47;8256445;28;20121;-66
2023/04/20 01:47:34;;;;;;;9.55;4.43;;;;;;;9.15;59.32;100861.63;8288365;28;20046;-61
2023/04/20 01:51:36;;;;;;;10.90;4.45;;;;;;;9.12;58.82;100848.41;8283990;28;20077;-66
2023/04/20 01:55:36;;;;;;;9.52;4.47;;;;;;;9.12;58.57;100845.69;8259428;28;20049;-66
2023/04/20 01:59:37;;;;;;;8.10;4.78;;;;;;;9.09;58.49;100851.34;8263149;28;20030;-66
2023/04/20 02:03:37;;;;;;;7.90;5.15;;;;;;;9.18;59.27;100850.59;8287057;28;20037;-67
2023/04/20 02:07:37;;;;;;;7.78;4.18;;;;;;;9.13;59.47;100842.00;8271367;28;20117;-66
2023/04/20 02:11:40;;;;;;;7.80;4.07;;;;;;;9.16;59.35;100848.03;8257320;28;20373;-60
2023/04/20 02:15:40;;;;;;;11.48;4.45;;;;;;;9.07;59.45;100848.75;8294866;28;20030;-59
2023/04/20 02:19:41;;;;;;;8.30;4.13;;;;;;;9.13;59.33;100842.00;8292864;28;20052;-59
2023/04/20 02:23:41;;;;;;;5.82;4.10;;;;;;;9.07;59.44;100826.31;8292243;28;20049;-59
2023/04/20 02:27:42;;;;;;;7.00;4.30;;;;;;;9.09;59.47;100821.66;8293383;28;20468;-59
2023/04/20 02:31:42;;;;;;;8.90;4.50;;;;;;;9.07;59.20;100811.00;8293739;28;20038;-59
2023/04/20 02:35:43;;;;;;;11.20;4.85;;;;;;;9.09;59.36;100808.19;8293004;28;20046;-59
2023/04/20 02:39:45;;;;;;;8.35;3.97;;;;;;;9.09;58.51;100792.00;8289277;28;20088;-62
2023/04/20 02:43:45;;;;;;;10.60;4.35;;;;;;;9.08;59.00;100791.13;8292686;28;20042;-62
2023/04/20 02:47:46;;;;;;;7.00;4.25;;;;;;;9.10;59.03;100782.91;8292428;28;20034;-62
2023/04/20 02:51:48;;;;;;;6.90;4.47;;;;;;;9.06;58.99;100776.91;8293013;28;20068;-60
2023/04/20 02:55:48;;;;;;;8.25;4.10;;;;;;;9.11;59.21;100773.84;8293786;28;20041;-60
2023/04/20 03:00:01;;;;;;;8.95;4.05;;;;;;;9.03;58.24;100770.94;8292880;28;20492;-60
2023/04/20 03:04:15;;;;;;;8.63;4.50;;;;;;;9.00;58.74;100769.31;8293503;28;20052;-60
2023/04/20 03:08:23;;;;;;;9.45;4.22;;;;;;;8.97;57.98;100760.63;8292684;28;20456;-62
2023/04/20 03:12:27;;;;;;;9.02;4.05;;;;;;;9.00;57.87;100763.09;8292679;28;20038;-62
2023/04/20 03:16:36;;;;;;;9.50;4.10;;;;;;;8.91;58.06;100761.13;8292727;28;20092;-62
2023/04/20 03:20:38;;;;;;;10.82;4.88;;;;;;;8.92;57.58;100752.06;8292259;28;20117;-62
2023/04/20 03:24:38;;;;;;;5.95;3.83;;;;;;;8.89;57.56;100758.56;8291617;28;20053;-62
2023/04/20 03:28:50;;;;;;;9.40;4.38;;;;;;;8.86;57.17;100757.94;8292049;28;20045;-62
2023/04/20 03:32:54;;;;;;;8.27;3.92;;;;;;;8.88;57.16;100755.97;8292111;28;20065;-62
2023/04/20 03:36:55;;;;;;;7.60;3.97;;;;;;;8.90;57.31;100760.25;8291275;28;20034;-62
2023/04/20 03:40:56;;;;;;;7.47;4.03;;;;;;;8.84;57.56;100749.97;8291986;28;20030;-62
2023/04/20 03:44:57;;;;;;;10.70;4.05;;;;;;;8.88;57.10;100751.44;8292041;28;20346;-62
2023/04/20 03:48:57;;;;;;;4.55;3.50;;;;;;;8.86;56.89;100749.84;8273611;28;20044;-62
2023/04/20 03:52:58;;;;;;;6.22;4.22;;;;;;;8.90;56.82;100752.19;8291744;28;20128;-59
2023/04/20 03:56:58;;;;;;;7.25;3.85;;;;;;;8.84;57.54;100752.66;8257731;28;20105;-59
2023/04/20 04:01:03;;;;;;;7.10;4.05;;;;;;;8.81;57.29;100749.38;8291211;28;20040;-59
2023/04/20 04:05:05;;;;;;;10.83;4.50;;;;;;;8.78;57.62;100750.47;8291290;28;20601;-59
2023/04/20 04:09:06;;;;;;;11.55;4.00;;;;;;;8.86;57.54;100733.69;8290708;28;20132;-59
2023/04/20 04:13:06;;;;;;;7.25;3.75;;;;;;;8.89;57.56;100736.13;8290384;28;20034;-59
2023/04/20 04:17:07;;;;;;;10.02;4.20;;;;;;;8.79;58.07;100729.78;8291021;28;20125;-60
2023/04/20 04:21:09;;;;;;;8.07;4.03;;;;;;;8.75;58.79;100736.41;8282874;28;20041;-60
2023/04/20 04:25:11;;;;;;;8.27;3.80;;;;;;;8.73;59.63;100739.22;8284131;28;20416;-59
2023/04/20 04:29:12;;;;;;;10.35;4.18;;;;;;;8.60;60.11;100734.94;8276179;28;20388;-59
2023/04/20 04:33:13;;;;;;;7.18;4.75;;;;;;;8.46;65.30;100735.16;8271187;28;20041;-59
2023/04/20 04:37:17;;;;;;;14.02;6.22;;;;;;;8.40;65.85;100728.44;8285216;28;20038;-59
2023/04/20 04:41:24;;;;;;;12.68;4.60;;;;;;;8.38;65.76;100729.53;8283603;28;20536;-59
2023/04/20 04:45:25;;;;;;;9.55;4.72;;;;;;;8.27;66.78;100721.44;8285807;28;20046;-59
2023/04/20 04:49:28;;;;;;;10.00;4.55;;;;;;;8.34;68.57;100718.16;8274185;28;20097;-59
2023/04/20 04:53:28;;;;;;;6.03;4.18;;;;;;;8.29;68.42;100719.50;8287479;28;20125;-59
2023/04/20 04:57:28;;;;;;;10.65;5.18;;;;;;;8.37;68.39;100722.41;8289047;28;20516;-59
2023/04/20 05:01:29;;;;;;;9.35;5.07;;;;;;;8.28;68.45;100723.16;8288959;28;20447;-59
2023/04/20 05:05:29;;;;;;;10.07;4.75;;;;;;;8.31;69.99;100715.69;8289964;28;20041;-59
2023/04/20 05:09:32;;;;;;;8.63;5.07;;;;;;;8.22;70.96;100739.75;8274889;28;20045;-59
2023/04/20 05:13:32;;;;;;;12.93;4.97;;;;;;;8.14;69.94;100726.06;8289208;28;20132;-59
2023/04/20 05:17:32;;;;;;;12.32;6.05;;;;;;;8.04;73.13;100729.47;8281251;28;20497;-59
2023/04/20 05:21:33;;;;;;;11.50;5.97;;;;;;;7.93;76.86;100734.81;8289805;28;20135;-59
2023/04/20 05:25:34;;;;;;;14.68;5.30;;;;;;;7.81;77.67;100729.53;8318626;28;20587;-59
2023/04/20 05:29:34;;;;;;;13.95;6.47;;;;;;;7.76;78.78;100729.88;8283622;28;20041;-62
2023/04/20 05:33:35;;;;;;;12.43;6.63;;;;;;;7.63;80.36;100737.16;8284014;28;20041;-60
2023/04/20 05:37:35;;;;;;;12.45;7.50;;;;;;;7.48;82.86;100738.31;8262061;28;20046;-60
2023/04/20 05:41:35;;;;;;;16.45;7.65;;;;;;;7.51;83.69;100739.94;8284165;28;20072;-60
2023/04/20 05:45:36;;;;;;;15.23;7.70;;;;;;;7.38;85.99;100729.22;8286164;28;20033;-60
2023/04/20 05:49:36;;;;;;;14.18;8.00;;;;;;;7.31;85.30;100733.34;8287125;28;20454;-60
2023/04/20 05:53:37;;;;;;;18.42;7.50;;;;;;;7.36;86.34;100733.03;8293425;28;20038;-62
2023/04/20 05:57:41;;;;;;;15.95;9.05;;;;;;;7.54;90.10;100732.47;8287048;28;20042;-62
2023/04/20 06:01:42;;;;;;;16.88;8.00;;;;;;;7.58;90.20;100730.41;8288078;28;20416;-62
2023/04/20 06:05:42;;;;;;;16.17;8.20;;;;;;;7.45;89.08;100729.63;8293347;28;20034;-63
2023/04/20 06:09:43;;;;;;;14.85;8.88;;;;;;;7.48;91.63;100727.56;8293061;28;20065;-62
2023/04/20 06:13:43;;;;;;;16.17;8.68;;;;;;;7.56;92.60;100730.53;8292963;28;20052;-62
2023/04/20 06:17:44;;;;;;;15.90;9.90;;;;;;;7.69;93.51;100723.22;8290008;28;21394;-62
2023/04/20 06:21:44;;;;;;;18.73;8.32;;;;;;;7.73;92.27;100716.66;8286515;28;20104;-62
2023/04/20 06:25:45;;;;;;;15.68;8.70;;;;;;;7.74;92.42;100713.00;8291593;28;20217;-60
2023/04/20 06:29:46;;;;;;;18.25;9.25;;;;;;;7.76;93.36;100700.28;8289614;28;20044;-59
2023/04/20 06:33:46;;;;;;;14.88;9.23;;;;;;;7.85;93.11;100699.56;8292192;28;20125;-59
2023/04/20 06:37:47;;;;;;;14.85;8.10;;;;;;;8.06;93.85;100692.47;8292743;28;20455;-60
2023/04/20 06:41:47;;;;;;;17.10;8.65;;;;;;;8.07;90.59;100698.75;8292868;28;20038;-60
2023/04/20 06:45:48;;;;;;;15.55;8.45;;;;;;;8.07;90.76;100690.66;8291608;28;20041;-60
2023/04/20 06:49:48;;;;;;;18.88;9.05;;;;;;;8.03;93.18;100684.66;8290344;28;20130;-60
2023/04/20 06:53:49;;;;;;;16.75;9.32;;;;;;;8.09;95.54;100689.56;8291027;28;20044;-66
2023/04/20 06:57:49;;;;;;;17.27;9.35;;;;;;;7.86;96.81;100700.41;8287708;28;20045;-67
2023/04/20 07:01:50;;;;;;;17.55;8.90;;;;;;;7.96;99.37;100694.19;8291273;28;20045;-67
2023/04/20 07:05:50;;;;;;;17.63;8.65;;;;;;;7.86;97.30;100685.13;8291696;28;20038;-66
2023/04/20 07:09:51;;;;;;;20.05;9.13;;;;;;;7.70;96.42;100690.00;8291016;28;20034;-66
2023/04/20 07:13:51;;;;;;;17.20;9.82;;;;;;;7.61;97.54;100684.44;8289410;28;20099;-66
2023/04/20 07:17:51;;;;;;;19.27;8.82;;;;;;;7.47;98.28;100682.81;8290915;28;20117;-66
2023/04/20 07:21:52;;;;;;;22.15;9.55;;;;;;;7.69;99.74;100682.88;8294997;28;20037;-66
2023/04/20 07:25:53;;;;;;;15.38;10.15;;;;;;;7.64;100.00;100679.69;8289396;28;20470;-66
2023/04/20 07:29:53;;;;;;;16.92;9.90;;;;;;;7.55;100.00;100675.03;8290347;28;20561;-66
2023/04/20 07:33:54;;;;;;;17.83;11.13;;;;;;;7.52;100.00;100680.63;8290244;28;20543;-60
2023/04/20 07:37:54;;;;;;;16.17;10.52;;;;;;;7.46;100.00;100675.72;8290899;28;20045;-60
2023/04/20 07:41:55;;;;;;;22.60;12.70;;;;;;;7.64;100.00;100685.09;8290871;28;20124;-60
2023/04/20 07:45:56;;;;;;;17.48;10.93;;;;;;;7.52;100.00;100680.63;8289927;28;20361;-59
2023/04/20 07:49:57;;;;;;;23.98;12.60;;;;;;;7.51;100.00;100678.06;8289539;28;20044;-59
2023/04/20 07:53:57;;;;;;;21.02;12.82;;;;;;;7.50;100.00;100682.56;8288698;28;20565;-59
2023/04/20 07:57:57;;;;;;;22.92;12.98;;;;;;;7.45;100.00;100678.53;8289677;28;20038;-59
2023/04/20 08:02:00;;;;;;;19.15;12.40;;;;;;;7.37;100.00;100678.25;8289716;28;20029;-65
2023/04/20 08:06:00;;;;;;;24.25;13.30;;;;;;;7.34;100.00;100682.03;8287873;28;20083;-65
2023/04/20 08:10:01;;;;;;;20.65;13.15;;;;;;;7.36;100.00;100679.22;8288746;28;20045;-59
2023/04/20 08:14:02;;;;;;;21.90;13.27;;;;;;;7.58;100.00;100666.72;8288846;28;20120;-58
2023/04/20 08:18:02;;;;;;;23.05;14.70;;;;;;;7.64;100.00;100674.31;8289161;28;20053;-59
2023/04/20 08:22:04;;;;;;;20.98;14.07;;;;;;;7.75;100.00;100677.00;8289230;28;20042;-59
2023/04/20 08:26:04;;;;;;;23.58;14.32;;;;;;;7.89;100.00;100675.94;8288635;28;20487;-61
2023/04/20 08:30:06;;;;;;;18.90;12.77;;;;;;;7.86;100.00;100665.41;8288749;28;20127;-60
2023/04/20 08:34:07;;;;;;;17.60;11.73;;;;;;;7.91;100.00;100665.94;8288431;28;20623;-59
2023/04/20 08:38:07;;;;;;;18.30;13.10;;;;;;;8.05;100.00;100663.84;8288801;28;20439;-59
2023/04/20 08:42:08;;;;;;;13.55;10.35;;;;;;;7.98;100.00;100657.25;8288842;28;20038;-59
2023/04/20 08:46:08;;;;;;;14.88;11.32;;;;;;;8.19;100.00;100659.22;8288326;28;20061;-59
2023/04/20 08:50:10;;;;;;;15.82;11.02;;;;;;;8.21;100.00;100646.50;8287876;28;20480;-59
2023/04/20 08:54:11;;;;;;;18.20;11.68;;;;;;;8.28;100.00;100643.22;8288066;28;20030;-59
2023/04/20 08:58:12;;;;;;;14.18;10.45;;;;;;;8.40;100.00;100649.44;8288175;28;20044;-60
2023/04/20 09:02:13;;;;;;;16.25;10.43;;;;;;;8.31;100.00;100648.34;8288108;28;20034;-60
2023/04/20 09:06:16;;;;;;;15.63;9.93;;;;;;;8.31;100.00;100642.97;8287968;28;20034;-63
2023/04/20 09:10:16;;;;;;;15.85;10.75;;;;;;;8.45;100.00;100647.25;8287758;28;20041;-63
2023/04/20 09:14:17;;;;;;;14.07;9.82;;;;;;;8.44;100.00;100632.03;8287096;28;20180;-67
2023/04/20 09:18:17;;;;;;;11.82;9.27;;;;;;;8.43;100.00;100651.91;8285045;28;20137;-67
2023/04/20 09:22:29;;;;;;;7.32;4.75;;;;;;;7.99;98.39;100640.13;8278950;28;20504;-67
2023/04/20 09:26:34;;;;;;;7.65;6.32;;;;;;;7.97;99.07;100642.06;8287173;28;20034;-61
2023/04/20 09:30:41;;;;;;;8.93;6.97;;;;;;;8.09;99.73;100633.00;8286605;28;20128;-61
2023/04/20 09:34:43;;;;;;;10.60;7.18;;;;;;;8.34;100.00;100636.47;8286807;28;20041;-60
2023/04/20 09:38:44;;;;;;;7.93;6.95;;;;;;;8.47;100.00;100615.63;8287061;28;20045;-60
2023/04/20 09:42:47;;;;;;;10.57;7.10;;;;;;;9.08;98.28;100633.84;8288090;28;20547;-60
2023/04/20 09:46:47;;;;;;;10.07;7.43;;;;;;;9.29;98.40;100632.03;8287174;28;20416;-61
2023/04/20 09:50:48;;;;;;;9.65;6.75;;;;;;;9.24;97.01;100628.91;8286769;28;20080;-60
2023/04/20 09:54:50;;;;;;;11.23;6.65;;;;;;;9.18;95.29;100621.31;8286453;28;20096;-60
2023/04/20 09:58:52;;;;;;;9.93;6.53;;;;;;;9.47;98.79;100620.56;8286999;28;20069;-67
2023/04/20 10:02:52;;;;;;;8.48;6.88;;;;;;;9.45;98.85;100621.66;8286914;28;20259;-66
2023/04/20 10:06:56;;;;;;;9.82;6.70;;;;;;;9.26;97.74;100626.91;8287190;28;20030;-63
2023/04/20 10:10:57;;;;;;;8.73;5.95;;;;;;;8.86;99.31;100631.22;8286492;28;20522;-62
2023/04/20 10:14:59;;;;;;;6.93;5.35;;;;;;;8.38;100.00;100643.34;8286454;28;20381;-62
2023/04/20 10:19:02;;;;;;;2.58;2.38;;;;;;;7.65;100.00;100643.75;8285035;28;20044;-62
2023/04/20 10:23:09;;;;;;;2.38;1.38;;;;;;;7.17;100.00;100631.34;8286713;28;20045;-60
2023/04/20 10:27:18;;;;;;;2.03;1.60;;;;;;;7.46;100.00;100623.75;8257727;28;20034;-60
2023/04/20 10:31:20;;;;;;;1.40;0.93;;;;;;;8.37;100.00;100609.28;8253855;28;20124;-60
2023/04/20 10:35:21;;;;;;;0.90;0.80;;;;;;;8.97;96.96;100610.47;8258795;28;20061;-60
2023/04/20 10:39:21;;;;;;;1.23;1.10;;;;;;;9.30;94.03;100612.19;8264379;28;20042;-60
2023/04/20 10:43:22;;;;;;;2.55;2.35;;;;;;;9.81;93.41;100607.69;8260042;28;20069;-67
2023/04/20 10:47:28;;;;;;;5.85;4.20;;;;;;;10.07;93.73;100606.31;8259882;28;20045;-66
2023/04/20 10:51:28;;;;;;;5.05;4.55;;;;;;;9.98;93.92;100601.69;8267406;28;20034;-66
2023/04/20 10:55:29;;;;;;;6.22;4.95;;;;;;;9.95;95.89;100599.25;8291448;28;20041;-66
2023/04/20 10:59:30;;;;;;;5.03;4.53;;;;;;;9.35;97.34;100620.75;8291269;28;20045;-66
2023/04/20 11:03:32;;;;;;;2.70;2.22;;;;;;;8.75;96.79;100593.53;8289694;28;20515;-67
2023/04/20 11:07:33;;;;;;;3.17;2.88;;;;;;;9.28;100.00;100597.97;8291370;28;20453;-66
2023/04/20 11:11:36;;;;;;;2.03;1.40;;;;;;;10.21;93.37;100588.88;8291403;28;20795;-62
2023/04/20 11:15:36;;;;;;;1.80;1.42;;;;;;;11.32;89.34;100592.03;8296049;28;20133;-62
2023/04/20 11:19:37;;;;;;;1.98;1.58;;;;;;;12.20;84.13;100587.16;8291185;28;20042;-63
2023/04/20 11:23:37;;;;;;;1.67;1.58;;;;;;;12.20;80.61;100581.72;8290850;28;20037;-63
2023/04/20 11:27:38;;;;;;;3.55;1.90;;;;;;;11.77;78.18;100577.72;8290501;28;20132;-62
2023/04/20 11:31:39;;;;;;;2.75;2.10;;;;;;;10.98;82.55;100569.94;8289971;28;20037;-62
2023/04/20 11:35:41;;;;;;;2.30;2.10;;;;;;;10.60;83.84;100567.22;8290007;28;20045;-66
2023/04/20 11:39:41;;;;;;;2.60;2.30;;;;;;;10.45;84.28;100574.03;8290241;28;20049;-66
2023/04/20 11:43:43;;;;;;;2.92;2.70;;;;;;;10.39;84.66;100571.88;8290174;28;20113;-66
2023/04/20 11:47:44;;;;;;;3.20;2.70;;;;;;;10.50;83.50;100568.19;8289902;28;20121;-65
2023/04/20 11:51:46;;;;;;;4.95;2.60;;;;;;;10.25;82.24;100574.97;8289868;28;20451;-65
2023/04/20 11:55:46;;;;;;;5.30;2.80;;;;;;;10.57;83.50;100569.34;8289433;28;20045;-65
2023/04/20 11:59:48;;;;;;;4.30;2.97;;;;;;;11.00;77.40;100573.38;8303684;28;20338;-65
2023/04/20 12:03:48;;;;;;;3.08;2.78;;;;;;;11.53;78.53;100577.31;8289368;28;20041;-65
2023/04/20 12:07:48;;;;;;;4.28;3.28;;;;;;;11.16;76.23;100573.66;8289384;28;20042;-65
2023/04/20 12:11:49;;;;;;;3.42;2.83;;;;;;;11.66;76.10;100572.50;8289035;28;20054;-65
2023/04/20 12:15:49;;;;;;;3.30;3.00;;;;;;;12.48;78.28;100559.03;8287295;28;20423;-65
2023/04/20 12:19:51;;;;;;;5.25;3.33;;;;;;;12.31;75.81;100560.69;8286960;28;20120;-65
2023/04/20 12:23:51;;;;;;;3.90;3.50;;;;;;;11.87;75.75;100561.47;8288525;28;20496;-59
2023/04/20 12:27:52;;;;;;;4.00;3.40;;;;;;;11.60;74.27;100559.53;8286178;28;20412;-59
2023/04/20 12:31:52;;;;;;;5.50;4.18;;;;;;;11.93;77.75;100556.28;8287335;28;20044;-59
2023/04/20 12:35:53;;;;;;;5.60;4.88;;;;;;;12.21;73.25;100540.94;8284002;28;20046;-59
2023/04/20 12:39:53;;;;;;;4.85;4.15;;;;;;;12.63;72.67;100547.50;8287070;28;20045;-59
2023/04/20 12:43:54;;;;;;;8.10;4.95;;;;;;;12.87;68.44;100555.06;8286856;28;20044;-59
2023/04/20 12:47:54;;;;;;;6.20;5.32;;;;;;;12.85;70.99;100557.06;8286554;28;20743;-59
2023/04/20 12:51:55;;;;;;;7.57;5.22;;;;;;;12.72;70.26;100546.59;8285889;28;20069;-59
2023/04/20 12:55:55;;;;;;;7.55;5.93;;;;;;;12.12;70.35;100546.38;8283866;28;20053;-59
2023/04/20 12:59:55;;;;;;;7.13;5.88;;;;;;;11.71;70.20;100547.66;8263053;28;20053;-59
2023/04/20 13:03:56;;;;;;;8.07;5.85;;;;;;;11.88;69.91;100555.91;8251389;28;20046;-59
2023/04/20 13:07:56;;;;;;;7.15;5.20;;;;;;;12.17;68.62;100544.91;8253151;28;20045;-59
2023/04/20 13:11:57;;;;;;;10.20;6.00;;;;;;;12.29;68.30;100542.88;8255570;28;20088;-59
2023/04/20 13:15:58;;;;;;;7.90;5.28;;;;;;;12.90;69.53;100533.88;8283647;28;20045;-59
2023/04/20 13:19:59;;;;;;;7.03;4.65;;;;;;;12.66;67.74;100546.38;8272360;28;20050;-59
2023/04/20 13:24:00;;;;;;;6.18;5.20;;;;;;;11.98;68.85;100522.50;8277536;28;20069;-59
2023/04/20 13:28:01;;;;;;;10.88;6.22;;;;;;;12.27;69.99;100531.31;8282455;28;20033;-59
2023/04/20 13:32:02;;;;;;;6.72;5.70;;;;;;;12.71;69.64;100527.75;8284020;28;20087;-59
2023/04/20 13:36:02;;;;;;;5.07;4.10;;;;;;;12.33;68.20;100528.00;8284560;28;20049;-60
2023/04/20 13:40:04;;;;;;;5.35;4.72;;;;;;;12.04;68.95;100525.44;8283600;28;20325;-59
2023/04/20 13:44:06;;;;;;;7.05;5.93;;;;;;;12.53;70.00;100507.91;8284486;28;20037;-61
2023/04/20 13:48:07;;;;;;;7.40;4.97;;;;;;;12.75;66.81;100497.44;8285015;28;20073;-59
2023/04/20 13:52:07;;;;;;;8.02;5.45;;;;;;;12.90;66.61;100497.78;8284565;28;20561;-59
2023/04/20 13:56:08;;;;;;;9.07;6.15;;;;;;;13.22;67.79;100500.78;8278884;28;20052;-59
2023/04/20 14:00:09;;;;;;;11.40;5.53;;;;;;;13.16;60.91;100485.13;8259177;28;20096;-59
2023/04/20 14:04:09;;;;;;;7.05;5.38;;;;;;;13.12;61.98;100476.44;8284251;28;20113;-59
2023/04/20 14:08:12;;;;;;;6.25;5.03;;;;;;;13.15;61.24;100473.41;8288295;28;20038;-59
2023/04/20 14:12:13;;;;;;;7.80;5.47;;;;;;;13.60;61.43;100465.03;8290954;28;20069;-59
2023/04/20 14:16:13;;;;;;;7.97;5.47;;;;;;;13.50;61.38;100472.47;8289347;28;20125;-59
2023/04/20 14:20:14;;;;;;;6.05;4.75;;;;;;;13.76;60.32;100467.88;8290247;28;20092;-59
2023/04/20 14:24:14;;;;;;;7.93;4.20;;;;;;;13.43;58.44;100471.41;8288549;28;20038;-59
2023/04/20 14:28:16;;;;;;;6.13;4.85;;;;;;;13.10;59.88;100458.59;8288939;28;20033;-59
2023/04/20 14:32:18;;;;;;;6.45;4.65;;;;;;;13.31;59.74;100467.25;8290028;28;20389;-59
2023/04/20 14:36:18;;;;;;;6.90;5.55;;;;;;;13.74;60.31;100457.16;8289020;28;20045;-59
2023/04/20 14:40:19;;;;;;;7.43;5.45;;;;;;;13.74;59.22;100456.31;8284302;28;20034;-60
2023/04/20 14:44:20;;;;;;;7.13;4.80;;;;;;;13.86;59.90;100452.28;8257611;28;20050;-59
2023/04/20 14:48:22;;;;;;;7.75;5.00;;;;;;;14.02;57.14;100438.75;8288757;28;20125;-59
2023/04/20 14:52:23;;;;;;;6.20;3.97;;;;;;;13.53;57.30;100445.84;8286645;28;20407;-59
2023/04/20 14:56:23;;;;;;;7.45;5.13;;;;;;;13.42;58.20;100450.72;8283167;28;20112;-59
2023/04/20 15:00:26;;;;;;;6.93;4.97;;;;;;;13.21;58.88;100452.94;8286724;28;20045;-58
2023/04/20 15:04:27;;;;;;;7.35;4.78;;;;;;;13.14;59.03;100449.13;8288793;28;20113;-58
2023/04/20 15:08:27;;;;;;;7.35;5.53;;;;;;;13.18;59.50;100439.69;8288406;28;20506;-59
2023/04/20 15:12:28;;;;;;;8.23;4.80;;;;;;;13.32;58.55;100448.09;8280508;28;20412;-59
2023/04/20 15:16:29;;;;;;;7.85;4.60;;;;;;;13.45;58.21;100426.78;8286683;28;20045;-59
2023/04/20 15:20:29;;;;;;;6.43;4.82;;;;;;;13.75;58.44;100428.09;8283568;28;20042;-59
2023/04/20 15:24:29;;;;;;;7.40;5.38;;;;;;;13.84;58.81;100438.00;8287844;28;20069;-59
2023/04/20 15:28:30;;;;;;;5.30;4.30;;;;;;;13.51;56.70;100422.59;8287480;28;20411;-59
2023/04/20 15:32:32;;;;;;;7.47;4.88;;;;;;;13.43;57.06;100422.53;8287181;28;20275;-59
2023/04/20 15:36:33;;;;;;;6.32;4.47;;;;;;;13.34;57.55;100418.06;8286303;28;20535;-58
2023/04/20 15:40:34;;;;;;;8.25;4.82;;;;;;;13.40;57.85;100412.84;8288157;28;20583;-59
2023/04/20 15:44:34;;;;;;;7.25;5.32;;;;;;;13.54;57.03;100425.81;8291210;28;20037;-59
2023/04/20 15:48:35;;;;;;;8.40;4.82;;;;;;;13.47;55.70;100402.16;8286988;28;20046;-60
2023/04/20 15:52:35;;;;;;;8.63;5.10;;;;;;;13.49;57.12;100421.88;8282565;28;20085;-59
2023/04/20 15:56:36;;;;;;;5.05;4.55;;;;;;;13.34;57.52;100407.19;8285210;28;20046;-59
2023/04/20 16:00:39;;;;;;;9.35;5.30;;;;;;;13.20;58.60;100426.78;8303140;28;20099;-60
2023/04/20 16:04:40;;;;;;;7.73;4.83;;;;;;;13.01;58.03;100421.56;8287550;28;20045;-60
2023/04/20 16:08:40;;;;;;;8.43;4.88;;;;;;;12.95;58.42;100427.59;8286424;28;20114;-59
2023/04/20 16:12:41;;;;;;;8.02;4.95;;;;;;;12.95;59.89;100424.88;8287019;28;20044;-59
2023/04/20 16:16:41;;;;;;;7.88;4.90;;;;;;;13.04;59.11;100413.97;8284783;28;20397;-59
2023/04/20 16:20:42;;;;;;;6.25;4.50;;;;;;;12.99;59.79;100423.56;8288266;28;20042;-62
2023/04/20 16:24:42;;;;;;;8.60;5.72;;;;;;;12.88;58.96;100426.53;8257127;28;20159;-62
2023/04/20 16:28:43;;;;;;;11.02;5.68;;;;;;;12.83;59.74;100418.84;8264799;28;20408;-62
2023/04/20 16:32:43;;;;;;;8.00;5.40;;;;;;;13.01;58.54;100416.13;8287902;28;20038;-63
2023/04/20 16:36:44;;;;;;;6.47;5.00;;;;;;;13.07;58.83;100415.50;8277966;28;20128;-64
2023/04/20 16:40:44;;;;;;;8.30;5.70;;;;;;;13.05;58.28;100423.81;8284909;28;20455;-64
2023/04/20 16:44:45;;;;;;;6.53;4.47;;;;;;;13.02;57.72;100420.56;8287510;28;20072;-64
2023/04/20 16:48:45;;;;;;;5.00;4.20;;;;;;;12.95;57.62;100424.88;8300191;28;20049;-64
2023/04/20 16:52:46;;;;;;;7.28;4.95;;;;;;;12.93;58.31;100418.78;8284787;28;20536;-64
2023/04/20 16:56:47;;;;;;;9.05;4.72;;;;;;;13.11;56.70;100419.59;8267480;28;20046;-63
2023/04/20 17:00:47;;;;;;;5.65;4.10;;;;;;;13.32;55.94;100409.22;8281603;28;20037;-64
2023/04/20 17:04:48;;;;;;;5.47;4.38;;;;;;;13.61;57.32;100412.44;8271652;28;20088;-64
2023/04/20 17:08:49;;;;;;;4.97;4.18;;;;;;;13.52;56.28;100418.84;8283149;28;20069;-62
2023/04/20 17:12:49;;;;;;;8.20;4.38;;;;;;;13.26;56.62;100426.13;8287964;28;20183;-62
2023/04/20 17:16:52;;;;;;;7.32;5.30;;;;;;;12.78;61.34;100453.72;8288406;28;20034;-62
2023/04/20 17:20:56;;;;;;;6.57;5.05;;;;;;;12.10;68.67;100459.81;8287958;28;20041;-63
2023/04/20 17:24:56;;;;;;;8.55;5.63;;;;;;;11.74;71.35;100466.13;8287716;28;20054;-62
2023/04/20 17:28:57;;;;;;;7.57;5.70;;;;;;;11.72;71.42;100473.56;8297461;28;20055;-62
2023/04/20 17:32:59;;;;;;;8.35;4.88;;;;;;;11.76;69.87;100467.69;8285145;28;20041;-62
2023/04/20 17:37:00;;;;;;;5.35;4.28;;;;;;;11.76;70.06;100470.41;8286083;28;20492;-62
2023/04/20 17:41:02;;;;;;;5.78;5.13;;;;;;;11.57;71.45;100485.84;8285089;28;20072;-62
2023/04/20 17:45:04;;;;;;;7.50;4.63;;;;;;;11.57;71.80;100496.66;8288338;28;20177;-62
2023/04/20 17:49:04;;;;;;;5.50;4.45;;;;;;;11.56;72.27;100484.97;8293749;28;20060;-59
2023/04/20 17:53:06;;;;;;;6.07;4.65;;;;;;;11.57;72.43;100508.38;8290776;28;20052;-62
2023/04/20 17:57:07;;;;;;;5.47;4.82;;;;;;;11.50;73.03;100501.81;8291400;28;20350;-65
2023/04/20 18:01:08;;;;;;;8.52;6.53;;;;;;;11.47;71.82;100515.63;8289470;28;20033;-62
2023/04/20 18:05:09;;;;;;;9.13;7.05;;;;;;;11.26;73.48;100509.56;8292311;28;20068;-59
2023/04/20 18:09:11;;;;;;;9.18;7.10;;;;;;;11.12;74.38;100515.44;8290562;28;20045;-59
2023/04/20 18:13:12;;;;;;;10.75;6.65;;;;;;;11.05;74.11;100519.72;8289984;28;20049;-65
2023/04/20 18:17:12;;;;;;;7.78;6.70;;;;;;;11.06;75.12;100524.13;8288925;28;20069;-65
2023/04/20 18:21:13;;;;;;;11.02;7.88;;;;;;;11.07;74.56;100536.63;8290904;28;20034;-64
2023/04/20 18:25:13;;;;;;;10.52;7.05;;;;;;;11.05;75.79;100535.94;8287356;28;20500;-65
2023/04/20 18:29:13;;;;;;;7.68;6.07;;;;;;;10.87;77.55;100524.13;8297783;28;20144;-65
2023/04/20 18:33:14;;;;;;;8.55;6.38;;;;;;;10.77;79.10;100528.66;8287866;28;20451;-65
2023/04/20 18:37:15;;;;;;;8.48;6.65;;;;;;;10.58;81.73;100534.06;8288065;28;20049;-67
2023/04/20 18:41:16;;;;;;;7.80;6.78;;;;;;;10.54;82.28;100529.94;8286946;28;20034;-66
2023/04/20 18:45:17;;;;;;;9.30;6.90;;;;;;;10.50;82.47;100525.81;8285736;28;20042;-66